Toronto, Kansas
Current Conditions -  °F | °C
As of 2:52 AM on Saturday 29 Nov 2014 (Local Time) from KCNU Reporting Station
Clear Clear  
Wind Chill: 45°   Ceiling: Unl
Heat Index: 49°   Visibility: 10mi
Dew Point: 46°   Wind: 10mph
Humidity: 90%   Direction: 160°SSE
Pressure: 29.74"   Gusts: NA
Location:  37.8°N, 95.95°W
Report Text: KCNU 290852Z AUTO 16009KT 10SM CLR 09/08 A2974 RMK AO2 SLP067 T00940078 56017
Loading
Personal Weather Stations






























Interactive Weather Map New forecast layout! Learn more

10-Day Weather Forecast

Advertisements
Track Severe Weather on mobile